createdAt,value
2022-12-17T00:00:12.227Z,0.90
2022-12-17T00:02:57.409Z,0.90
2022-12-17T00:05:42.530Z,0.90
2022-12-17T00:08:27.961Z,0.90
2022-12-17T00:11:16.976Z,1.00
2022-12-17T00:14:02.694Z,0.90
2022-12-17T00:16:47.998Z,1.00
2022-12-17T00:19:53.374Z,0.90
2022-12-17T00:22:41.697Z,1.00
2022-12-17T00:25:27.714Z,1.00
2022-12-17T00:28:13.191Z,1.00
2022-12-17T00:30:58.778Z,0.90
2022-12-17T00:33:44.038Z,0.90
2022-12-17T00:36:29.330Z,0.90
2022-12-17T00:39:14.922Z,1.00
2022-12-17T00:42:00.446Z,0.90
2022-12-17T00:44:46.038Z,0.90
2022-12-17T00:47:31.474Z,0.90
2022-12-17T00:50:16.942Z,0.90
2022-12-17T00:53:02.138Z,0.90
2022-12-17T00:55:47.756Z,1.00
2022-12-17T00:58:33.344Z,1.00
2022-12-17T01:01:20.034Z,1.10
2022-12-17T01:04:05.408Z,1.00
2022-12-17T01:06:50.901Z,1.00
2022-12-17T01:09:36.337Z,1.10
2022-12-17T01:12:22.178Z,1.00
2022-12-17T01:15:07.567Z,1.00
2022-12-17T01:17:53.030Z,0.90
2022-12-17T01:20:41.878Z,0.90
2022-12-17T01:23:27.811Z,0.80
2022-12-17T01:26:15.565Z,0.90
2022-12-17T01:29:01.574Z,0.90
2022-12-17T01:31:47.004Z,0.90
2022-12-17T01:34:32.305Z,0.90
2022-12-17T01:37:17.379Z,0.80
2022-12-17T01:40:03.345Z,0.80
2022-12-17T01:43:03.312Z,0.80
2022-12-17T01:46:01.528Z,0.80
2022-12-17T01:49:06.640Z,0.80
2022-12-17T01:51:54.628Z,0.80
2022-12-17T01:54:41.147Z,0.80
2022-12-17T01:57:29.273Z,0.80
2022-12-17T02:00:26.190Z,0.80
2022-12-17T02:03:11.767Z,0.80
2022-12-17T02:06:21.715Z,0.90
2022-12-17T02:09:44.361Z,0.80
2022-12-17T02:12:49.226Z,0.80
2022-12-17T02:15:45.335Z,0.80
2022-12-17T02:18:52.399Z,0.80
2022-12-17T02:21:39.767Z,0.80
2022-12-17T02:24:49.375Z,0.90
2022-12-17T02:27:36.327Z,0.90
2022-12-17T02:30:26.571Z,0.90
2022-12-17T02:33:13.353Z,1.00
2022-12-17T02:36:08.263Z,0.90
2022-12-17T02:38:53.787Z,1.00
2022-12-17T02:41:49.013Z,0.90
2022-12-17T02:44:40.480Z,0.90
2022-12-17T02:47:28.993Z,0.90
2022-12-17T02:50:14.902Z,1.00
2022-12-17T02:53:06.341Z,1.00
2022-12-17T02:55:54.159Z,1.00
2022-12-17T02:58:39.884Z,0.90
2022-12-17T03:01:26.202Z,1.00
2022-12-17T03:04:11.578Z,1.00
2022-12-17T03:06:57.390Z,1.00
2022-12-17T03:09:42.971Z,0.90
2022-12-17T03:12:28.210Z,0.90
2022-12-17T03:15:13.555Z,0.90
2022-12-17T03:17:58.670Z,0.90
2022-12-17T03:20:44.139Z,0.90
2022-12-17T03:23:31.163Z,0.80
2022-12-17T03:26:19.198Z,0.80
2022-12-17T03:29:05.290Z,0.90
2022-12-17T03:31:51.383Z,0.80
2022-12-17T03:34:36.931Z,0.80
2022-12-17T03:37:24.010Z,0.90
2022-12-17T03:40:09.378Z,0.80
2022-12-17T03:42:54.991Z,0.90
2022-12-17T03:45:40.439Z,0.90
2022-12-17T03:48:29.734Z,0.90
2022-12-17T03:51:16.341Z,0.80
2022-12-17T03:54:02.269Z,0.90
2022-12-17T03:56:49.702Z,0.90
2022-12-17T03:59:35.662Z,0.90
2022-12-17T04:02:21.172Z,0.90
2022-12-17T04:05:06.951Z,0.90
2022-12-17T04:07:52.570Z,0.90
2022-12-17T04:10:37.921Z,0.80
2022-12-17T04:13:23.956Z,0.80
2022-12-17T04:16:09.459Z,0.90
2022-12-17T04:18:57.927Z,0.90
2022-12-17T04:21:43.467Z,0.80
2022-12-17T04:24:29.022Z,0.90
2022-12-17T04:27:14.637Z,0.90
2022-12-17T04:30:00.204Z,0.90
2022-12-17T04:32:45.687Z,1.00
2022-12-17T04:35:30.962Z,0.90
2022-12-17T04:38:16.317Z,1.00
2022-12-17T04:41:01.846Z,0.90
2022-12-17T04:43:47.322Z,0.80
2022-12-17T04:46:32.870Z,0.90
2022-12-17T04:49:18.134Z,0.90
2022-12-17T04:52:03.490Z,0.80
2022-12-17T04:54:48.882Z,0.80
2022-12-17T04:57:34.353Z,0.80
2022-12-17T05:00:19.869Z,0.80
2022-12-17T05:03:05.371Z,0.80
2022-12-17T05:05:50.776Z,0.90
2022-12-17T05:08:41.220Z,0.90
2022-12-17T05:11:46.832Z,0.80
2022-12-17T05:14:33.535Z,0.80
2022-12-17T05:17:18.920Z,0.70
2022-12-17T05:20:05.193Z,0.70
2022-12-17T05:22:53.655Z,0.60
2022-12-17T05:25:38.905Z,0.70
2022-12-17T05:28:24.381Z,0.70
2022-12-17T05:31:14.545Z,0.70
2022-12-17T05:34:00.213Z,0.70
2022-12-17T05:36:45.775Z,0.70
2022-12-17T05:39:31.410Z,0.70
2022-12-17T05:42:16.893Z,0.80
2022-12-17T05:45:02.419Z,0.80
2022-12-17T05:47:47.971Z,0.70
2022-12-17T05:50:34.110Z,0.70
2022-12-17T05:53:22.644Z,0.70
2022-12-17T05:56:11.030Z,0.70
2022-12-17T05:58:57.996Z,0.60
2022-12-17T06:01:43.474Z,0.60
2022-12-17T06:04:29.658Z,0.70
2022-12-17T06:07:15.245Z,0.70
2022-12-17T06:10:00.702Z,0.70
2022-12-17T06:12:46.060Z,0.70
2022-12-17T06:15:31.650Z,0.80
2022-12-17T06:18:17.622Z,0.80
2022-12-17T06:21:03.868Z,0.70
2022-12-17T06:23:49.400Z,0.70
2022-12-17T06:26:39.287Z,0.80
2022-12-17T06:29:24.713Z,0.80
2022-12-17T06:32:10.232Z,0.80
2022-12-17T06:34:55.760Z,0.80
2022-12-17T06:37:41.390Z,0.70
2022-12-17T06:40:28.149Z,0.80
2022-12-17T06:43:15.088Z,0.70
2022-12-17T06:46:01.093Z,0.80
2022-12-17T06:48:46.585Z,0.80
2022-12-17T06:51:32.084Z,0.80
2022-12-17T06:54:17.621Z,0.70
2022-12-17T06:57:02.961Z,0.70
2022-12-17T06:59:48.582Z,0.70
2022-12-17T07:02:34.234Z,0.80
2022-12-17T07:05:19.588Z,0.80
2022-12-17T07:08:05.178Z,0.70
2022-12-17T07:10:50.655Z,0.70
2022-12-17T07:13:36.561Z,0.70
2022-12-17T07:16:22.124Z,0.70
2022-12-17T07:19:07.443Z,0.70
2022-12-17T07:21:53.060Z,0.60
2022-12-17T07:24:38.251Z,0.70
2022-12-17T07:27:23.558Z,0.70
2022-12-17T07:30:09.044Z,0.70
2022-12-17T07:32:54.507Z,0.70
2022-12-17T07:35:40.213Z,0.60
2022-12-17T07:38:25.832Z,0.70
2022-12-17T07:41:14.219Z,0.70
2022-12-17T07:43:59.764Z,0.70
2022-12-17T07:46:45.170Z,0.70
2022-12-17T07:49:30.703Z,0.80
2022-12-17T07:52:15.941Z,0.80
2022-12-17T07:55:04.114Z,0.70
2022-12-17T07:57:49.621Z,0.70
2022-12-17T08:00:34.787Z,0.70
2022-12-17T08:03:20.907Z,0.70
2022-12-17T08:06:06.094Z,0.70
2022-12-17T08:08:51.651Z,0.60
2022-12-17T08:11:37.269Z,0.70
2022-12-17T08:14:22.735Z,0.70
2022-12-17T08:17:08.330Z,0.70
2022-12-17T08:19:53.705Z,0.70
2022-12-17T08:22:39.183Z,0.70
2022-12-17T08:25:24.922Z,0.70
2022-12-17T08:28:48.946Z,0.70
2022-12-17T08:31:24.358Z,0.80
2022-12-17T08:34:10.087Z,1.30
2022-12-17T08:36:55.434Z,1.00
2022-12-17T08:39:40.647Z,0.80
2022-12-17T08:42:25.933Z,0.90
2022-12-17T08:45:11.402Z,0.90
2022-12-17T08:48:02.068Z,0.80
2022-12-17T08:50:49.401Z,0.80
2022-12-17T08:53:35.433Z,0.90
2022-12-17T08:56:21.130Z,0.70
2022-12-17T08:59:06.665Z,0.70
2022-12-17T09:01:52.360Z,0.70
2022-12-17T09:04:37.931Z,0.60
2022-12-17T09:07:23.602Z,0.60
2022-12-17T09:10:09.162Z,0.50
2022-12-17T09:12:55.906Z,0.40
2022-12-17T09:15:43.131Z,0.50
2022-12-17T09:18:28.605Z,0.60
2022-12-17T09:21:15.075Z,0.60
2022-12-17T09:24:00.727Z,0.70
2022-12-17T09:26:46.212Z,0.70
2022-12-17T09:29:31.834Z,0.80
2022-12-17T09:32:17.948Z,0.80
2022-12-17T09:35:05.062Z,0.80
2022-12-17T09:37:50.758Z,0.70
2022-12-17T09:40:43.430Z,0.70
2022-12-17T09:44:15.830Z,0.80
2022-12-17T09:47:53.515Z,0.90
2022-12-17T09:50:39.044Z,0.70
2022-12-17T09:53:50.294Z,0.80
2022-12-17T09:56:39.763Z,0.90
2022-12-17T09:59:25.160Z,0.80
2022-12-17T10:02:10.638Z,0.90
2022-12-17T10:05:00.910Z,0.90
2022-12-17T10:07:54.373Z,0.90
2022-12-17T10:10:51.361Z,0.80
2022-12-17T10:13:42.029Z,0.80
2022-12-17T10:16:58.100Z,0.80
2022-12-17T10:20:00.653Z,0.90
2022-12-17T10:22:46.575Z,0.90
2022-12-17T10:25:41.299Z,1.00
2022-12-17T10:28:33.230Z,1.00
2022-12-17T10:31:20.308Z,1.00
2022-12-17T10:34:06.337Z,1.10
2022-12-17T10:36:51.850Z,1.10
2022-12-17T10:39:44.289Z,1.10
2022-12-17T10:42:56.826Z,1.10
2022-12-17T10:45:49.585Z,1.10
2022-12-17T10:48:47.819Z,1.00
2022-12-17T10:51:50.724Z,1.00
2022-12-17T10:54:49.955Z,1.10
2022-12-17T10:57:57.542Z,1.20
2022-12-17T11:00:57.363Z,1.30
2022-12-17T11:03:51.764Z,1.30
2022-12-17T11:06:53.639Z,1.20
2022-12-17T11:10:09.782Z,1.30
2022-12-17T11:13:15.762Z,1.30
2022-12-17T11:16:09.864Z,1.20
2022-12-17T11:19:27.874Z,1.30
2022-12-17T11:22:41.186Z,1.40
2022-12-17T11:25:54.078Z,1.40
2022-12-17T11:28:46.697Z,1.40
2022-12-17T11:31:48.715Z,1.50
2022-12-17T11:34:59.561Z,1.50
2022-12-17T11:37:58.157Z,1.50
2022-12-17T11:41:01.116Z,1.60
2022-12-17T11:44:20.346Z,1.60
2022-12-17T11:47:28.079Z,1.60
2022-12-17T11:50:47.252Z,1.60
2022-12-17T11:53:59.066Z,1.60
2022-12-17T11:57:02.286Z,1.70
2022-12-17T12:00:12.205Z,1.70
2022-12-17T12:03:24.002Z,1.70
2022-12-17T12:06:17.522Z,1.70
2022-12-17T12:09:25.968Z,1.70
2022-12-17T12:12:42.826Z,1.70
2022-12-17T12:15:44.772Z,1.80
2022-12-17T12:18:42.542Z,1.70
2022-12-17T12:22:12.919Z,1.70
2022-12-17T12:25:34.836Z,1.60
2022-12-17T12:28:55.788Z,1.40
2022-12-17T12:31:58.430Z,1.50
2022-12-17T12:34:50.851Z,1.50
2022-12-17T12:37:39.002Z,1.50
2022-12-17T12:41:00.938Z,1.50
2022-12-17T12:43:51.909Z,1.60
2022-12-17T12:46:58.107Z,1.60
2022-12-17T12:50:15.599Z,1.60
2022-12-17T12:53:01.510Z,1.60
2022-12-17T12:56:01.491Z,1.70
2022-12-17T12:58:51.546Z,1.60
2022-12-17T13:01:58.857Z,1.40
2022-12-17T13:04:55.374Z,1.40
2022-12-17T13:07:28.990Z,1.40
2022-12-17T13:09:58.931Z,1.10
2022-12-17T13:12:39.625Z,1.30
2022-12-17T13:15:06.448Z,1.30
2022-12-17T13:17:55.195Z,1.40
2022-12-17T13:20:33.753Z,1.40
2022-12-17T13:23:09.791Z,1.30
2022-12-17T13:25:37.654Z,1.30
2022-12-17T13:28:05.860Z,1.40
2022-12-17T13:30:39.037Z,1.30
2022-12-17T13:33:23.685Z,1.30
2022-12-17T13:36:17.872Z,1.30
2022-12-17T13:39:26.486Z,1.30
2022-12-17T13:41:58.214Z,1.30
2022-12-17T13:44:45.274Z,1.30
2022-12-17T13:47:33.165Z,1.20
2022-12-17T13:50:33.465Z,1.20
2022-12-17T13:52:52.137Z,1.20
2022-12-17T13:55:26.726Z,1.10
2022-12-17T13:57:55.774Z,1.00
2022-12-17T14:00:28.550Z,1.00
2022-12-17T14:02:55.849Z,1.10
2022-12-17T14:05:33.371Z,1.10
2022-12-17T14:08:03.225Z,1.10
2022-12-17T14:10:30.389Z,1.10
2022-12-17T14:13:12.687Z,1.10
2022-12-17T14:15:48.364Z,1.10
2022-12-17T14:18:20.607Z,1.10
2022-12-17T14:20:52.350Z,1.00
2022-12-17T14:23:25.752Z,1.10
2022-12-17T14:25:52.989Z,1.00
2022-12-17T14:28:24.462Z,1.00
2022-12-17T14:31:25.394Z,0.90
2022-12-17T14:33:45.398Z,0.90
2022-12-17T14:36:23.513Z,0.80
2022-12-17T14:38:58.471Z,0.90
2022-12-17T14:41:46.290Z,0.90
2022-12-17T14:44:31.201Z,0.90
2022-12-17T14:47:24.134Z,1.00
2022-12-17T14:50:12.275Z,0.90
2022-12-17T14:52:50.058Z,0.90
2022-12-17T14:55:26.691Z,0.90
2022-12-17T14:58:12.301Z,0.80
2022-12-17T15:00:50.943Z,0.80
2022-12-17T15:03:32.555Z,0.90
2022-12-17T15:06:05.089Z,0.80
2022-12-17T15:08:47.824Z,0.80
2022-12-17T15:11:21.305Z,0.70
2022-12-17T15:13:53.074Z,0.60
2022-12-17T15:16:23.291Z,0.60
2022-12-17T15:18:50.514Z,0.60
2022-12-17T15:21:18.894Z,0.60
2022-12-17T15:23:46.871Z,0.60
2022-12-17T15:26:15.169Z,0.60
2022-12-17T15:28:43.274Z,0.60
2022-12-17T15:31:13.655Z,0.60
2022-12-17T15:33:41.743Z,0.50
2022-12-17T15:36:12.003Z,0.60
2022-12-17T15:38:39.464Z,0.60
2022-12-17T15:41:26.054Z,0.50
2022-12-17T15:43:52.998Z,0.50
2022-12-17T15:46:19.797Z,0.50
2022-12-17T15:48:50.414Z,0.50
2022-12-17T15:51:19.969Z,0.60
2022-12-17T15:53:48.213Z,0.50
2022-12-17T15:56:25.654Z,0.60
2022-12-17T15:58:53.055Z,0.60
2022-12-17T16:01:20.347Z,0.60
2022-12-17T16:03:47.407Z,0.60
2022-12-17T16:06:14.327Z,0.60
2022-12-17T16:08:41.315Z,0.50
2022-12-17T16:11:10.168Z,0.50
2022-12-17T16:13:38.706Z,0.50
2022-12-17T16:16:07.927Z,0.50
2022-12-17T16:18:38.484Z,0.50
2022-12-17T16:21:08.523Z,0.50
2022-12-17T16:23:36.101Z,0.50
2022-12-17T16:26:05.984Z,0.50
2022-12-17T16:28:36.374Z,0.30
2022-12-17T16:31:11.607Z,0.40
2022-12-17T16:33:41.891Z,0.40
2022-12-17T16:36:12.914Z,0.40
2022-12-17T16:38:49.517Z,0.40
2022-12-17T16:41:18.581Z,0.30
2022-12-17T16:43:45.941Z,0.40
2022-12-17T16:46:41.679Z,0.30
2022-12-17T16:49:18.821Z,0.30
2022-12-17T16:51:52.783Z,0.40
2022-12-17T16:54:26.895Z,0.40
2022-12-17T16:56:55.109Z,0.40
2022-12-17T16:59:23.344Z,0.30
2022-12-17T17:01:51.960Z,0.30
2022-12-17T17:04:23.039Z,0.30
2022-12-17T17:06:54.218Z,0.40
2022-12-17T17:09:23.249Z,0.40
2022-12-17T17:11:52.013Z,0.40
2022-12-17T17:14:19.821Z,0.30
2022-12-17T17:16:46.806Z,0.30
2022-12-17T17:19:15.136Z,0.30
2022-12-17T17:21:48.635Z,0.30
2022-12-17T17:24:21.137Z,0.30
2022-12-17T17:26:50.917Z,0.20
2022-12-17T17:29:18.191Z,0.10
2022-12-17T17:34:32.250Z,0.10
2022-12-17T17:36:59.187Z,0.10
2022-12-17T17:39:27.219Z,0.10
2022-12-17T17:41:54.035Z,0.10
2022-12-17T17:44:20.854Z,0.10
2022-12-17T17:46:47.949Z,0.10
2022-12-17T17:49:15.053Z,0.20
2022-12-17T17:54:31.751Z,0.10
2022-12-17T17:56:58.606Z,-0.10
2022-12-17T17:59:32.908Z,0.00
2022-12-17T18:02:01.580Z,0.00
2022-12-17T18:04:29.054Z,0.00
2022-12-17T18:07:24.172Z,0.00
2022-12-17T18:09:42.643Z,0.00
2022-12-17T18:12:27.921Z,0.10
2022-12-17T18:15:13.840Z,0.10
2022-12-17T18:17:41.659Z,0.00
2022-12-17T18:20:10.078Z,0.10
2022-12-17T18:22:37.769Z,0.00
2022-12-17T18:25:05.528Z,0.10
2022-12-17T18:27:32.664Z,0.00
2022-12-17T18:29:59.610Z,0.00
2022-12-17T18:32:26.771Z,0.10
2022-12-17T18:34:53.631Z,0.10
2022-12-17T18:37:20.556Z,0.10
2022-12-17T18:39:48.606Z,0.10
2022-12-17T18:42:33.916Z,0.10
2022-12-17T18:45:01.879Z,0.10
2022-12-17T18:47:32.405Z,-0.10
2022-12-17T18:49:59.149Z,-0.10
2022-12-17T18:52:25.927Z,0.00
2022-12-17T18:54:52.775Z,-0.10
2022-12-17T18:57:19.731Z,-0.10
2022-12-17T18:59:46.743Z,-0.20
2022-12-17T19:02:14.550Z,-0.20
2022-12-17T19:04:42.023Z,-0.30
2022-12-17T19:07:09.453Z,-0.20
2022-12-17T19:09:36.973Z,-0.20
2022-12-17T19:12:07.405Z,-0.20
2022-12-17T19:14:35.317Z,-0.20
2022-12-17T19:17:02.705Z,-0.30
2022-12-17T19:19:29.783Z,-0.20
2022-12-17T19:21:59.557Z,-0.30
2022-12-17T19:24:26.594Z,-0.20
2022-12-17T19:26:53.583Z,-0.20
2022-12-17T19:29:22.139Z,-0.20
2022-12-17T19:31:49.625Z,-0.40
2022-12-17T19:34:18.643Z,-0.40
2022-12-17T19:36:47.129Z,-0.30
2022-12-17T19:39:17.841Z,-0.30
2022-12-17T19:41:45.156Z,-0.30
2022-12-17T19:44:15.571Z,-0.40
2022-12-17T19:46:43.476Z,-0.40
2022-12-17T19:49:15.569Z,-0.40
2022-12-17T19:51:44.155Z,-0.50
2022-12-17T19:54:14.826Z,-0.40
2022-12-17T19:56:44.534Z,-0.40
2022-12-17T19:59:12.897Z,-0.50
2022-12-17T20:01:46.469Z,-0.60
2022-12-17T20:04:15.909Z,-0.60
2022-12-17T20:06:43.948Z,-0.50
2022-12-17T20:09:10.979Z,-0.50
2022-12-17T20:11:38.843Z,-0.60
2022-12-17T20:14:20.860Z,-0.70
2022-12-17T20:16:55.150Z,-0.70
2022-12-17T20:19:30.858Z,-0.60
2022-12-17T20:22:04.240Z,-0.70
2022-12-17T20:24:32.250Z,-0.80
2022-12-17T20:27:00.645Z,-0.80
2022-12-17T20:29:28.097Z,-0.80
2022-12-17T20:31:55.928Z,-0.80
2022-12-17T20:34:24.323Z,-0.80
2022-12-17T20:36:54.019Z,-0.80
2022-12-17T20:39:26.614Z,-0.90
2022-12-17T20:41:55.404Z,-0.80
2022-12-17T20:44:22.311Z,-0.80
2022-12-17T20:46:49.179Z,-0.80
2022-12-17T20:49:16.079Z,-0.90
2022-12-17T20:51:43.185Z,-1.10
2022-12-17T20:54:11.037Z,-1.00
2022-12-17T20:56:40.360Z,-1.00
2022-12-17T20:59:13.144Z,-1.00
2022-12-17T21:01:40.622Z,-1.10
2022-12-17T21:04:07.996Z,-1.00
2022-12-17T21:06:44.839Z,-1.00
2022-12-17T21:09:13.762Z,-1.00
2022-12-17T21:11:41.921Z,-0.90
2022-12-17T21:14:15.792Z,-0.90
2022-12-17T21:16:43.574Z,-1.00
2022-12-17T21:19:16.510Z,-1.20
2022-12-17T21:21:43.546Z,-1.10
2022-12-17T21:24:11.274Z,-1.20
2022-12-17T21:26:41.678Z,-1.20
2022-12-17T21:29:10.421Z,-1.10
2022-12-17T21:31:49.830Z,-1.10
2022-12-17T21:34:25.368Z,-1.00
2022-12-17T21:36:52.549Z,-1.10
2022-12-17T21:39:20.700Z,-1.10
2022-12-17T21:42:07.530Z,-1.10
2022-12-17T21:44:35.412Z,-1.00
2022-12-17T21:47:02.619Z,-1.00
2022-12-17T21:49:29.478Z,-1.00
2022-12-17T21:51:59.161Z,-1.00
2022-12-17T21:54:26.250Z,-1.00
2022-12-17T21:56:53.206Z,-1.00
2022-12-17T21:59:20.073Z,-1.10
2022-12-17T22:01:46.931Z,-1.00
2022-12-17T22:04:13.953Z,-1.10
2022-12-17T22:06:44.199Z,-1.00
2022-12-17T22:09:29.041Z,-1.10
2022-12-17T22:12:26.862Z,-1.10
2022-12-17T22:14:53.609Z,-1.10
2022-12-17T22:17:21.178Z,-1.10
2022-12-17T22:19:48.162Z,-1.10
2022-12-17T22:22:14.980Z,-1.00
2022-12-17T22:24:41.780Z,-0.90
2022-12-17T22:27:09.542Z,-1.00
2022-12-17T22:29:55.664Z,-1.00
2022-12-17T22:32:41.078Z,-1.00
2022-12-17T22:36:15.771Z,-1.00
2022-12-17T22:40:37.385Z,-1.00
2022-12-17T22:44:29.800Z,-1.10
2022-12-17T22:44:42.778Z,-1.10
2022-12-17T22:46:19.757Z,-1.20
2022-12-17T22:48:47.259Z,-1.20
2022-12-17T22:51:22.900Z,-1.30
2022-12-17T22:54:08.302Z,-1.30
2022-12-17T22:57:11.183Z,-1.30
2022-12-17T22:59:26.068Z,-1.20
2022-12-17T23:01:52.914Z,-1.30
2022-12-17T23:04:19.857Z,-1.30
2022-12-17T23:06:46.919Z,-1.20
2022-12-17T23:09:19.019Z,-1.30
2022-12-17T23:11:48.364Z,-1.20
2022-12-17T23:14:16.210Z,-1.20
2022-12-17T23:16:43.222Z,-1.20
2022-12-17T23:19:10.255Z,-1.20
2022-12-17T23:21:37.907Z,-1.20
2022-12-17T23:24:05.530Z,-1.20
2022-12-17T23:26:35.775Z,-1.30
2022-12-17T23:29:08.419Z,-1.30
2022-12-17T23:31:40.201Z,-1.20
2022-12-17T23:34:08.837Z,-1.30
2022-12-17T23:36:37.296Z,-1.30
2022-12-17T23:39:04.957Z,-1.30
2022-12-17T23:41:32.512Z,-1.40
2022-12-17T23:44:00.268Z,-1.50
2022-12-17T23:46:29.556Z,-1.50
2022-12-17T23:48:56.803Z,-1.50
2022-12-17T23:51:24.843Z,-1.50
2022-12-17T23:53:52.209Z,-1.40
2022-12-17T23:56:20.485Z,-1.50
2022-12-17T23:58:48.367Z,-1.50
